sensor_id;sensor_type;location;lat;lon;timestamp;P1;durP1;ratioP1;P2;durP2;ratioP2
26106;SDS011;13866;50.748;12.630;2023-04-09T00:00:21;34.83;;;25.47;;
26106;SDS011;13866;50.748;12.630;2023-04-09T00:02:46;36.27;;;24.40;;
26106;SDS011;13866;50.748;12.630;2023-04-09T00:05:12;31.17;;;23.90;;
26106;SDS011;13866;50.748;12.630;2023-04-09T00:07:38;32.20;;;24.50;;
26106;SDS011;13866;50.748;12.630;2023-04-09T00:10:03;33.80;;;23.77;;
26106;SDS011;13866;50.748;12.630;2023-04-09T00:12:30;35.20;;;23.17;;
26106;SDS011;13866;50.748;12.630;2023-04-09T00:14:56;32.40;;;23.17;;
26106;SDS011;13866;50.748;12.630;2023-04-09T00:17:21;30.17;;;23.17;;
26106;SDS011;13866;50.748;12.630;2023-04-09T00:19:47;34.73;;;26.30;;
26106;SDS011;13866;50.748;12.630;2023-04-09T00:22:12;32.47;;;24.50;;
26106;SDS011;13866;50.748;12.630;2023-04-09T00:24:38;31.37;;;24.47;;
26106;SDS011;13866;50.748;12.630;2023-04-09T00:27:04;34.73;;;25.37;;
26106;SDS011;13866;50.748;12.630;2023-04-09T00:29:29;33.17;;;24.23;;
26106;SDS011;13866;50.748;12.630;2023-04-09T00:31:55;32.07;;;24.83;;
26106;SDS011;13866;50.748;12.630;2023-04-09T00:34:20;27.60;;;21.77;;
26106;SDS011;13866;50.748;12.630;2023-04-09T00:36:46;34.70;;;25.13;;
26106;SDS011;13866;50.748;12.630;2023-04-09T00:39:11;34.40;;;24.90;;
26106;SDS011;13866;50.748;12.630;2023-04-09T00:41:37;32.10;;;23.30;;
26106;SDS011;13866;50.748;12.630;2023-04-09T00:44:02;38.07;;;24.37;;
26106;SDS011;13866;50.748;12.630;2023-04-09T00:46:28;37.70;;;25.70;;
26106;SDS011;13866;50.748;12.630;2023-04-09T00:48:55;32.33;;;23.90;;
26106;SDS011;13866;50.748;12.630;2023-04-09T00:51:20;39.30;;;25.17;;
26106;SDS011;13866;50.748;12.630;2023-04-09T00:53:46;36.00;;;24.37;;
26106;SDS011;13866;50.748;12.630;2023-04-09T00:56:12;30.67;;;24.80;;
26106;SDS011;13866;50.748;12.630;2023-04-09T00:58:39;40.13;;;27.35;;
26106;SDS011;13866;50.748;12.630;2023-04-09T01:01:05;31.08;;;25.10;;
26106;SDS011;13866;50.748;12.630;2023-04-09T01:03:31;32.80;;;23.00;;
26106;SDS011;13866;50.748;12.630;2023-04-09T01:05:59;35.60;;;25.10;;
26106;SDS011;13866;50.748;12.630;2023-04-09T01:08:40;33.87;;;25.80;;
26106;SDS011;13866;50.748;12.630;2023-04-09T01:11:31;35.40;;;25.00;;
26106;SDS011;13866;50.748;12.630;2023-04-09T01:16:55;33.33;;;25.27;;
26106;SDS011;13866;50.748;12.630;2023-04-09T01:19:35;34.80;;;25.10;;
26106;SDS011;13866;50.748;12.630;2023-04-09T01:22:11;33.88;;;23.80;;
26106;SDS011;13866;50.748;12.630;2023-04-09T01:24:54;34.57;;;24.03;;
26106;SDS011;13866;50.748;12.630;2023-04-09T01:27:29;34.90;;;24.20;;
26106;SDS011;13866;50.748;12.630;2023-04-09T01:30:04;35.72;;;24.42;;
26106;SDS011;13866;50.748;12.630;2023-04-09T01:32:30;34.47;;;25.20;;
26106;SDS011;13866;50.748;12.630;2023-04-09T01:34:59;35.90;;;26.47;;
26106;SDS011;13866;50.748;12.630;2023-04-09T01:37:26;37.00;;;26.60;;
26106;SDS011;13866;50.748;12.630;2023-04-09T01:39:52;36.60;;;24.30;;
26106;SDS011;13866;50.748;12.630;2023-04-09T01:42:18;33.27;;;24.80;;
26106;SDS011;13866;50.748;12.630;2023-04-09T01:44:44;31.83;;;25.90;;
26106;SDS011;13866;50.748;12.630;2023-04-09T01:47:10;30.80;;;22.87;;
26106;SDS011;13866;50.748;12.630;2023-04-09T01:49:37;32.53;;;23.17;;
26106;SDS011;13866;50.748;12.630;2023-04-09T01:52:05;30.10;;;22.45;;
26106;SDS011;13866;50.748;12.630;2023-04-09T01:54:31;31.10;;;23.67;;
26106;SDS011;13866;50.748;12.630;2023-04-09T01:56:57;28.73;;;23.07;;
26106;SDS011;13866;50.748;12.630;2023-04-09T01:59:22;30.90;;;23.17;;
26106;SDS011;13866;50.748;12.630;2023-04-09T02:01:56;30.67;;;22.77;;
26106;SDS011;13866;50.748;12.630;2023-04-09T02:04:34;32.97;;;23.90;;
26106;SDS011;13866;50.748;12.630;2023-04-09T02:07:05;28.20;;;22.35;;
26106;SDS011;13866;50.748;12.630;2023-04-09T02:09:38;29.07;;;23.40;;
26106;SDS011;13866;50.748;12.630;2023-04-09T02:12:05;36.23;;;23.60;;
26106;SDS011;13866;50.748;12.630;2023-04-09T02:14:34;33.88;;;25.20;;
26106;SDS011;13866;50.748;12.630;2023-04-09T02:17:01;32.90;;;24.70;;
26106;SDS011;13866;50.748;12.630;2023-04-09T02:19:37;34.03;;;23.23;;
26106;SDS011;13866;50.748;12.630;2023-04-09T02:22:12;28.20;;;21.80;;
26106;SDS011;13866;50.748;12.630;2023-04-09T02:24:38;39.67;;;24.83;;
26106;SDS011;13866;50.748;12.630;2023-04-09T02:27:07;34.17;;;25.27;;
26106;SDS011;13866;50.748;12.630;2023-04-09T02:29:33;28.57;;;22.00;;
26106;SDS011;13866;50.748;12.630;2023-04-09T02:31:58;35.30;;;22.07;;
26106;SDS011;13866;50.748;12.630;2023-04-09T02:34:24;40.63;;;23.20;;
26106;SDS011;13866;50.748;12.630;2023-04-09T02:36:50;35.90;;;23.67;;
26106;SDS011;13866;50.748;12.630;2023-04-09T02:39:15;33.10;;;23.77;;
26106;SDS011;13866;50.748;12.630;2023-04-09T02:41:41;36.27;;;24.37;;
26106;SDS011;13866;50.748;12.630;2023-04-09T02:44:06;32.10;;;23.13;;
26106;SDS011;13866;50.748;12.630;2023-04-09T02:46:32;32.00;;;24.30;;
26106;SDS011;13866;50.748;12.630;2023-04-09T02:48:57;33.33;;;24.50;;
26106;SDS011;13866;50.748;12.630;2023-04-09T02:51:23;34.73;;;23.43;;
26106;SDS011;13866;50.748;12.630;2023-04-09T02:53:48;34.03;;;23.43;;
26106;SDS011;13866;50.748;12.630;2023-04-09T02:56:14;34.53;;;22.37;;
26106;SDS011;13866;50.748;12.630;2023-04-09T02:58:39;32.80;;;23.40;;
26106;SDS011;13866;50.748;12.630;2023-04-09T03:01:04;31.60;;;24.03;;
26106;SDS011;13866;50.748;12.630;2023-04-09T03:03:30;32.70;;;23.10;;
26106;SDS011;13866;50.748;12.630;2023-04-09T03:05:55;31.60;;;23.30;;
26106;SDS011;13866;50.748;12.630;2023-04-09T03:08:21;33.70;;;24.00;;
26106;SDS011;13866;50.748;12.630;2023-04-09T03:10:47;38.40;;;25.30;;
26106;SDS011;13866;50.748;12.630;2023-04-09T03:13:12;29.10;;;23.10;;
26106;SDS011;13866;50.748;12.630;2023-04-09T03:15:38;32.63;;;24.80;;
26106;SDS011;13866;50.748;12.630;2023-04-09T03:18:03;36.57;;;24.40;;
26106;SDS011;13866;50.748;12.630;2023-04-09T03:20:29;31.77;;;22.70;;
26106;SDS011;13866;50.748;12.630;2023-04-09T03:22:54;34.10;;;23.73;;
26106;SDS011;13866;50.748;12.630;2023-04-09T03:25:20;34.70;;;22.80;;
26106;SDS011;13866;50.748;12.630;2023-04-09T03:27:45;35.80;;;25.20;;
26106;SDS011;13866;50.748;12.630;2023-04-09T03:30:11;40.73;;;25.73;;
26106;SDS011;13866;50.748;12.630;2023-04-09T03:32:36;35.30;;;23.13;;
26106;SDS011;13866;50.748;12.630;2023-04-09T03:35:02;41.97;;;25.53;;
26106;SDS011;13866;50.748;12.630;2023-04-09T03:37:27;33.30;;;23.63;;
26106;SDS011;13866;50.748;12.630;2023-04-09T03:39:53;34.40;;;24.33;;
26106;SDS011;13866;50.748;12.630;2023-04-09T03:42:18;32.93;;;24.03;;
26106;SDS011;13866;50.748;12.630;2023-04-09T03:44:44;37.00;;;24.90;;
26106;SDS011;13866;50.748;12.630;2023-04-09T03:47:09;42.33;;;26.27;;
26106;SDS011;13866;50.748;12.630;2023-04-09T03:49:35;93.00;;;30.57;;
26106;SDS011;13866;50.748;12.630;2023-04-09T03:52:00;59.53;;;25.93;;
26106;SDS011;13866;50.748;12.630;2023-04-09T03:54:29;97.20;;;28.03;;
26106;SDS011;13866;50.748;12.630;2023-04-09T03:56:55;55.47;;;27.13;;
26106;SDS011;13866;50.748;12.630;2023-04-09T03:59:21;150.85;;;29.92;;
26106;SDS011;13866;50.748;12.630;2023-04-09T04:01:47;71.25;;;29.05;;
26106;SDS011;13866;50.748;12.630;2023-04-09T04:04:12;53.50;;;24.80;;
26106;SDS011;13866;50.748;12.630;2023-04-09T04:06:38;71.33;;;28.10;;
26106;SDS011;13866;50.748;12.630;2023-04-09T04:09:03;67.20;;;29.27;;
26106;SDS011;13866;50.748;12.630;2023-04-09T04:11:29;59.53;;;28.60;;
26106;SDS011;13866;50.748;12.630;2023-04-09T04:13:55;137.30;;;27.40;;
26106;SDS011;13866;50.748;12.630;2023-04-09T04:16:20;84.87;;;27.13;;
26106;SDS011;13866;50.748;12.630;2023-04-09T04:18:46;234.67;;;29.70;;
26106;SDS011;13866;50.748;12.630;2023-04-09T04:21:15;100.97;;;24.83;;
26106;SDS011;13866;50.748;12.630;2023-04-09T04:23:41;87.60;;;26.60;;
26106;SDS011;13866;50.748;12.630;2023-04-09T04:26:09;230.30;;;28.63;;
26106;SDS011;13866;50.748;12.630;2023-04-09T04:28:38;43.90;;;25.48;;
26106;SDS011;13866;50.748;12.630;2023-04-09T04:31:11;104.47;;;25.10;;
26106;SDS011;13866;50.748;12.630;2023-04-09T04:33:37;141.20;;;27.42;;
26106;SDS011;13866;50.748;12.630;2023-04-09T04:38:31;163.65;;;24.67;;
26106;SDS011;13866;50.748;12.630;2023-04-09T04:40:56;123.27;;;22.00;;
26106;SDS011;13866;50.748;12.630;2023-04-09T04:43:22;68.10;;;20.57;;
26106;SDS011;13866;50.748;12.630;2023-04-09T04:45:47;85.37;;;22.33;;
26106;SDS011;13866;50.748;12.630;2023-04-09T04:48:13;57.30;;;20.40;;
26106;SDS011;13866;50.748;12.630;2023-04-09T04:50:38;65.97;;;20.70;;
26106;SDS011;13866;50.748;12.630;2023-04-09T04:53:04;38.47;;;20.00;;
26106;SDS011;13866;50.748;12.630;2023-04-09T04:55:29;88.47;;;21.53;;
26106;SDS011;13866;50.748;12.630;2023-04-09T04:57:55;116.17;;;23.37;;
26106;SDS011;13866;50.748;12.630;2023-04-09T05:00:20;78.30;;;20.90;;
26106;SDS011;13866;50.748;12.630;2023-04-09T05:02:46;75.70;;;22.83;;
26106;SDS011;13866;50.748;12.630;2023-04-09T05:05:11;144.03;;;23.40;;
26106;SDS011;13866;50.748;12.630;2023-04-09T05:07:37;43.53;;;20.53;;
26106;SDS011;13866;50.748;12.630;2023-04-09T05:10:02;114.23;;;21.70;;
26106;SDS011;13866;50.748;12.630;2023-04-09T05:12:30;32.10;;;19.77;;
26106;SDS011;13866;50.748;12.630;2023-04-09T05:14:56;30.17;;;21.40;;
26106;SDS011;13866;50.748;12.630;2023-04-09T05:17:21;54.27;;;20.40;;
26106;SDS011;13866;50.748;12.630;2023-04-09T05:19:51;113.88;;;24.95;;
26106;SDS011;13866;50.748;12.630;2023-04-09T05:22:18;36.65;;;19.45;;
26106;SDS011;13866;50.748;12.630;2023-04-09T05:27:36;40.67;;;21.75;;
26106;SDS011;13866;50.748;12.630;2023-04-09T05:30:01;38.73;;;22.17;;
26106;SDS011;13866;50.748;12.630;2023-04-09T05:32:27;32.33;;;19.70;;
26106;SDS011;13866;50.748;12.630;2023-04-09T05:34:52;56.20;;;20.53;;
26106;SDS011;13866;50.748;12.630;2023-04-09T05:37:18;28.33;;;21.43;;
26106;SDS011;13866;50.748;12.630;2023-04-09T05:39:43;34.67;;;21.50;;
26106;SDS011;13866;50.748;12.630;2023-04-09T05:42:09;25.90;;;20.60;;
26106;SDS011;13866;50.748;12.630;2023-04-09T05:44:35;28.83;;;20.60;;
26106;SDS011;13866;50.748;12.630;2023-04-09T05:47:00;35.57;;;23.60;;
26106;SDS011;13866;50.748;12.630;2023-04-09T05:49:26;27.63;;;22.17;;
26106;SDS011;13866;50.748;12.630;2023-04-09T05:51:52;32.10;;;20.70;;
26106;SDS011;13866;50.748;12.630;2023-04-09T05:54:17;25.53;;;19.53;;
26106;SDS011;13866;50.748;12.630;2023-04-09T05:56:42;23.67;;;19.23;;
26106;SDS011;13866;50.748;12.630;2023-04-09T05:59:08;27.47;;;19.33;;
26106;SDS011;13866;50.748;12.630;2023-04-09T06:01:33;28.17;;;20.90;;
26106;SDS011;13866;50.748;12.630;2023-04-09T06:03:59;25.50;;;19.70;;
26106;SDS011;13866;50.748;12.630;2023-04-09T06:06:24;20.80;;;18.37;;
26106;SDS011;13866;50.748;12.630;2023-04-09T06:08:50;29.93;;;21.90;;
26106;SDS011;13866;50.748;12.630;2023-04-09T06:11:16;27.43;;;22.27;;
26106;SDS011;13866;50.748;12.630;2023-04-09T06:13:41;35.23;;;24.80;;
26106;SDS011;13866;50.748;12.630;2023-04-09T06:16:07;43.53;;;22.20;;
26106;SDS011;13866;50.748;12.630;2023-04-09T06:18:33;34.77;;;21.67;;
26106;SDS011;13866;50.748;12.630;2023-04-09T06:21:00;37.67;;;22.37;;
26106;SDS011;13866;50.748;12.630;2023-04-09T06:23:28;72.50;;;23.10;;
26106;SDS011;13866;50.748;12.630;2023-04-09T06:25:54;56.10;;;24.83;;
26106;SDS011;13866;50.748;12.630;2023-04-09T06:28:20;33.50;;;23.90;;
26106;SDS011;13866;50.748;12.630;2023-04-09T06:30:45;39.33;;;24.47;;
26106;SDS011;13866;50.748;12.630;2023-04-09T06:33:11;36.70;;;23.30;;
26106;SDS011;13866;50.748;12.630;2023-04-09T06:35:36;38.03;;;27.73;;
26106;SDS011;13866;50.748;12.630;2023-04-09T06:38:02;36.00;;;26.27;;
26106;SDS011;13866;50.748;12.630;2023-04-09T06:40:27;41.83;;;27.80;;
26106;SDS011;13866;50.748;12.630;2023-04-09T06:42:53;32.80;;;25.50;;
26106;SDS011;13866;50.748;12.630;2023-04-09T06:45:18;37.47;;;27.83;;
26106;SDS011;13866;50.748;12.630;2023-04-09T06:47:44;33.47;;;25.33;;
26106;SDS011;13866;50.748;12.630;2023-04-09T06:50:09;38.13;;;26.87;;
26106;SDS011;13866;50.748;12.630;2023-04-09T06:52:35;33.50;;;23.30;;
26106;SDS011;13866;50.748;12.630;2023-04-09T06:55:00;32.57;;;26.07;;
26106;SDS011;13866;50.748;12.630;2023-04-09T06:57:26;28.03;;;23.63;;
26106;SDS011;13866;50.748;12.630;2023-04-09T06:59:51;35.63;;;24.97;;
26106;SDS011;13866;50.748;12.630;2023-04-09T07:02:17;32.43;;;23.87;;
26106;SDS011;13866;50.748;12.630;2023-04-09T07:04:42;30.73;;;24.10;;
26106;SDS011;13866;50.748;12.630;2023-04-09T07:07:08;29.37;;;23.87;;
26106;SDS011;13866;50.748;12.630;2023-04-09T07:09:33;29.90;;;23.47;;
26106;SDS011;13866;50.748;12.630;2023-04-09T07:11:58;31.73;;;23.20;;
26106;SDS011;13866;50.748;12.630;2023-04-09T07:14:24;27.30;;;22.07;;
26106;SDS011;13866;50.748;12.630;2023-04-09T07:16:49;29.00;;;22.37;;
26106;SDS011;13866;50.748;12.630;2023-04-09T07:19:15;25.43;;;21.17;;
26106;SDS011;13866;50.748;12.630;2023-04-09T07:21:40;24.60;;;20.43;;
26106;SDS011;13866;50.748;12.630;2023-04-09T07:24:06;22.67;;;20.30;;
26106;SDS011;13866;50.748;12.630;2023-04-09T07:26:31;25.53;;;19.60;;
26106;SDS011;13866;50.748;12.630;2023-04-09T07:28:57;26.33;;;19.93;;
26106;SDS011;13866;50.748;12.630;2023-04-09T07:31:23;27.73;;;21.10;;
26106;SDS011;13866;50.748;12.630;2023-04-09T07:33:48;23.53;;;19.70;;
26106;SDS011;13866;50.748;12.630;2023-04-09T07:36:14;25.03;;;20.07;;
26106;SDS011;13866;50.748;12.630;2023-04-09T07:38:39;25.87;;;21.47;;
26106;SDS011;13866;50.748;12.630;2023-04-09T07:41:05;22.70;;;20.00;;
26106;SDS011;13866;50.748;12.630;2023-04-09T07:43:30;28.70;;;21.90;;
26106;SDS011;13866;50.748;12.630;2023-04-09T07:45:56;25.10;;;21.10;;
26106;SDS011;13866;50.748;12.630;2023-04-09T07:48:22;28.43;;;21.93;;
26106;SDS011;13866;50.748;12.630;2023-04-09T07:50:47;26.80;;;20.60;;
26106;SDS011;13866;50.748;12.630;2023-04-09T07:53:13;25.77;;;21.60;;
26106;SDS011;13866;50.748;12.630;2023-04-09T07:55:39;27.63;;;23.00;;
26106;SDS011;13866;50.748;12.630;2023-04-09T07:58:04;28.07;;;23.30;;
26106;SDS011;13866;50.748;12.630;2023-04-09T08:00:31;27.90;;;22.73;;
26106;SDS011;13866;50.748;12.630;2023-04-09T08:02:56;27.17;;;20.93;;
26106;SDS011;13866;50.748;12.630;2023-04-09T08:05:22;26.10;;;21.50;;
26106;SDS011;13866;50.748;12.630;2023-04-09T08:07:49;25.80;;;20.13;;
26106;SDS011;13866;50.748;12.630;2023-04-09T08:10:15;24.10;;;20.27;;
26106;SDS011;13866;50.748;12.630;2023-04-09T08:12:41;25.60;;;22.13;;
26106;SDS011;13866;50.748;12.630;2023-04-09T08:15:08;27.43;;;23.60;;
26106;SDS011;13866;50.748;12.630;2023-04-09T08:17:33;28.63;;;21.03;;
26106;SDS011;13866;50.748;12.630;2023-04-09T08:20:01;25.63;;;21.93;;
26106;SDS011;13866;50.748;12.630;2023-04-09T08:22:27;25.93;;;22.37;;
26106;SDS011;13866;50.748;12.630;2023-04-09T08:24:53;23.47;;;20.90;;
26106;SDS011;13866;50.748;12.630;2023-04-09T08:27:20;22.40;;;19.80;;
26106;SDS011;13866;50.748;12.630;2023-04-09T08:29:46;26.33;;;21.13;;
26106;SDS011;13866;50.748;12.630;2023-04-09T08:32:11;31.53;;;23.10;;
26106;SDS011;13866;50.748;12.630;2023-04-09T08:34:36;27.37;;;22.33;;
26106;SDS011;13866;50.748;12.630;2023-04-09T08:37:02;24.97;;;22.00;;
26106;SDS011;13866;50.748;12.630;2023-04-09T08:39:27;26.57;;;21.87;;
26106;SDS011;13866;50.748;12.630;2023-04-09T08:41:53;23.00;;;20.13;;
26106;SDS011;13866;50.748;12.630;2023-04-09T08:44:26;26.67;;;22.60;;
26106;SDS011;13866;50.748;12.630;2023-04-09T08:46:53;25.20;;;22.00;;
26106;SDS011;13866;50.748;12.630;2023-04-09T08:49:19;22.80;;;20.47;;
26106;SDS011;13866;50.748;12.630;2023-04-09T08:51:46;23.77;;;19.97;;
26106;SDS011;13866;50.748;12.630;2023-04-09T08:54:16;22.77;;;20.40;;
26106;SDS011;13866;50.748;12.630;2023-04-09T08:56:43;25.77;;;21.50;;
26106;SDS011;13866;50.748;12.630;2023-04-09T08:59:10;27.40;;;23.50;;
26106;SDS011;13866;50.748;12.630;2023-04-09T09:01:38;19.40;;;17.23;;
26106;SDS011;13866;50.748;12.630;2023-04-09T09:04:05;21.77;;;17.50;;
26106;SDS011;13866;50.748;12.630;2023-04-09T09:06:33;21.90;;;18.20;;
26106;SDS011;13866;50.748;12.630;2023-04-09T09:09:09;21.20;;;18.90;;
26106;SDS011;13866;50.748;12.630;2023-04-09T09:11:37;22.97;;;19.90;;
26106;SDS011;13866;50.748;12.630;2023-04-09T09:14:07;23.57;;;21.10;;
26106;SDS011;13866;50.748;12.630;2023-04-09T09:16:35;26.37;;;20.23;;
26106;SDS011;13866;50.748;12.630;2023-04-09T09:19:39;22.17;;;19.90;;
26106;SDS011;13866;50.748;12.630;2023-04-09T09:21:59;21.33;;;19.17;;
26106;SDS011;13866;50.748;12.630;2023-04-09T09:24:26;22.37;;;20.00;;
26106;SDS011;13866;50.748;12.630;2023-04-09T09:26:53;21.87;;;19.57;;
26106;SDS011;13866;50.748;12.630;2023-04-09T09:29:19;23.23;;;20.00;;
26106;SDS011;13866;50.748;12.630;2023-04-09T09:31:49;21.83;;;19.57;;
26106;SDS011;13866;50.748;12.630;2023-04-09T09:34:16;22.67;;;20.30;;
26106;SDS011;13866;50.748;12.630;2023-04-09T09:36:42;22.80;;;19.93;;
26106;SDS011;13866;50.748;12.630;2023-04-09T09:39:08;20.27;;;18.23;;
26106;SDS011;13866;50.748;12.630;2023-04-09T09:41:36;21.50;;;19.30;;
26106;SDS011;13866;50.748;12.630;2023-04-09T09:44:05;20.80;;;18.70;;
26106;SDS011;13866;50.748;12.630;2023-04-09T09:46:33;19.33;;;17.53;;
26106;SDS011;13866;50.748;12.630;2023-04-09T09:49:00;23.00;;;20.57;;
26106;SDS011;13866;50.748;12.630;2023-04-09T09:51:25;19.23;;;17.47;;
26106;SDS011;13866;50.748;12.630;2023-04-09T09:53:53;22.90;;;18.73;;
26106;SDS011;13866;50.748;12.630;2023-04-09T09:56:21;21.97;;;19.73;;
26106;SDS011;13866;50.748;12.630;2023-04-09T09:58:53;20.80;;;18.80;;
26106;SDS011;13866;50.748;12.630;2023-04-09T10:01:27;20.53;;;18.53;;
26106;SDS011;13866;50.748;12.630;2023-04-09T10:03:53;20.40;;;17.90;;
26106;SDS011;13866;50.748;12.630;2023-04-09T10:06:20;19.53;;;17.57;;
26106;SDS011;13866;50.748;12.630;2023-04-09T10:08:47;19.90;;;17.90;;
26106;SDS011;13866;50.748;12.630;2023-04-09T10:11:14;19.37;;;17.50;;
26106;SDS011;13866;50.748;12.630;2023-04-09T10:13:42;20.60;;;18.60;;
26106;SDS011;13866;50.748;12.630;2023-04-09T10:16:15;23.33;;;19.27;;
26106;SDS011;13866;50.748;12.630;2023-04-09T10:18:41;19.77;;;17.83;;
26106;SDS011;13866;50.748;12.630;2023-04-09T10:21:08;22.47;;;20.07;;
26106;SDS011;13866;50.748;12.630;2023-04-09T10:23:41;20.70;;;18.57;;
26106;SDS011;13866;50.748;12.630;2023-04-09T10:26:08;21.77;;;19.67;;
26106;SDS011;13866;50.748;12.630;2023-04-09T10:28:35;22.40;;;19.90;;
26106;SDS011;13866;50.748;12.630;2023-04-09T10:31:03;21.40;;;18.87;;
26106;SDS011;13866;50.748;12.630;2023-04-09T10:33:33;21.63;;;19.10;;
26106;SDS011;13866;50.748;12.630;2023-04-09T10:36:04;21.03;;;19.00;;
26106;SDS011;13866;50.748;12.630;2023-04-09T10:38:36;26.73;;;18.33;;
26106;SDS011;13866;50.748;12.630;2023-04-09T10:41:13;21.33;;;19.10;;
26106;SDS011;13866;50.748;12.630;2023-04-09T10:43:40;20.53;;;18.43;;
26106;SDS011;13866;50.748;12.630;2023-04-09T10:49:06;20.90;;;18.87;;
26106;SDS011;13866;50.748;12.630;2023-04-09T10:51:37;20.70;;;18.70;;
26106;SDS011;13866;50.748;12.630;2023-04-09T10:54:03;22.23;;;19.93;;
26106;SDS011;13866;50.748;12.630;2023-04-09T10:59:35;23.20;;;20.30;;
26106;SDS011;13866;50.748;12.630;2023-04-09T11:02:07;25.27;;;21.60;;
26106;SDS011;13866;50.748;12.630;2023-04-09T11:04:45;24.47;;;20.47;;
26106;SDS011;13866;50.748;12.630;2023-04-09T11:07:38;22.67;;;20.30;;
26106;SDS011;13866;50.748;12.630;2023-04-09T11:10:06;25.50;;;22.13;;
26106;SDS011;13866;50.748;12.630;2023-04-09T11:12:32;25.93;;;23.23;;
26106;SDS011;13866;50.748;12.630;2023-04-09T11:14:58;28.10;;;23.80;;
26106;SDS011;13866;50.748;12.630;2023-04-09T11:17:23;26.83;;;24.00;;
26106;SDS011;13866;50.748;12.630;2023-04-09T11:19:49;24.80;;;21.67;;
26106;SDS011;13866;50.748;12.630;2023-04-09T11:22:15;22.20;;;19.93;;
26106;SDS011;13866;50.748;12.630;2023-04-09T11:24:42;26.00;;;23.30;;
26106;SDS011;13866;50.748;12.630;2023-04-09T11:27:08;25.70;;;23.03;;
26106;SDS011;13866;50.748;12.630;2023-04-09T11:29:34;23.63;;;21.13;;
26106;SDS011;13866;50.748;12.630;2023-04-09T11:32:00;27.00;;;22.30;;
26106;SDS011;13866;50.748;12.630;2023-04-09T11:34:26;25.47;;;21.07;;
26106;SDS011;13866;50.748;12.630;2023-04-09T11:36:52;26.50;;;23.80;;
26106;SDS011;13866;50.748;12.630;2023-04-09T11:39:18;27.13;;;24.30;;
26106;SDS011;13866;50.748;12.630;2023-04-09T11:41:43;23.13;;;20.63;;
26106;SDS011;13866;50.748;12.630;2023-04-09T11:44:09;23.30;;;21.00;;
26106;SDS011;13866;50.748;12.630;2023-04-09T11:46:34;22.90;;;20.50;;
26106;SDS011;13866;50.748;12.630;2023-04-09T11:49:02;22.33;;;20.13;;
26106;SDS011;13866;50.748;12.630;2023-04-09T11:51:28;20.70;;;18.67;;
26106;SDS011;13866;50.748;12.630;2023-04-09T11:54:00;21.73;;;19.60;;
26106;SDS011;13866;50.748;12.630;2023-04-09T11:56:30;17.50;;;15.97;;
26106;SDS011;13866;50.748;12.630;2023-04-09T11:58:56;21.13;;;16.80;;
26106;SDS011;13866;50.748;12.630;2023-04-09T12:01:22;13.87;;;12.63;;
26106;SDS011;13866;50.748;12.630;2023-04-09T12:03:54;13.57;;;12.40;;
26106;SDS011;13866;50.748;12.630;2023-04-09T12:06:20;14.10;;;13.00;;
26106;SDS011;13866;50.748;12.630;2023-04-09T12:08:47;12.23;;;11.43;;
26106;SDS011;13866;50.748;12.630;2023-04-09T12:11:16;12.10;;;11.17;;
26106;SDS011;13866;50.748;12.630;2023-04-09T12:13:42;12.23;;;11.23;;
26106;SDS011;13866;50.748;12.630;2023-04-09T12:16:10;13.60;;;12.43;;
26106;SDS011;13866;50.748;12.630;2023-04-09T12:18:36;12.77;;;11.77;;
26106;SDS011;13866;50.748;12.630;2023-04-09T12:21:03;12.83;;;11.83;;
26106;SDS011;13866;50.748;12.630;2023-04-09T12:23:28;11.13;;;10.43;;
26106;SDS011;13866;50.748;12.630;2023-04-09T12:25:57;12.90;;;11.80;;
26106;SDS011;13866;50.748;12.630;2023-04-09T12:28:26;16.07;;;14.10;;
26106;SDS011;13866;50.748;12.630;2023-04-09T12:30:52;16.63;;;15.03;;
26106;SDS011;13866;50.748;12.630;2023-04-09T12:33:19;17.83;;;16.23;;
26106;SDS011;13866;50.748;12.630;2023-04-09T12:35:45;15.97;;;14.47;;
26106;SDS011;13866;50.748;12.630;2023-04-09T12:38:11;17.37;;;15.80;;
26106;SDS011;13866;50.748;12.630;2023-04-09T12:40:37;16.87;;;15.30;;
26106;SDS011;13866;50.748;12.630;2023-04-09T12:43:03;14.87;;;13.60;;
26106;SDS011;13866;50.748;12.630;2023-04-09T12:45:29;15.00;;;13.57;;
26106;SDS011;13866;50.748;12.630;2023-04-09T12:47:55;13.17;;;12.10;;
26106;SDS011;13866;50.748;12.630;2023-04-09T12:50:21;12.50;;;11.50;;
26106;SDS011;13866;50.748;12.630;2023-04-09T12:52:47;14.37;;;13.20;;
26106;SDS011;13866;50.748;12.630;2023-04-09T12:55:13;15.57;;;14.23;;
26106;SDS011;13866;50.748;12.630;2023-04-09T12:57:40;16.63;;;15.00;;
26106;SDS011;13866;50.748;12.630;2023-04-09T13:00:08;14.40;;;13.10;;
26106;SDS011;13866;50.748;12.630;2023-04-09T13:02:34;15.93;;;14.43;;
26106;SDS011;13866;50.748;12.630;2023-04-09T13:05:00;15.73;;;14.43;;
26106;SDS011;13866;50.748;12.630;2023-04-09T13:07:25;14.43;;;13.17;;
26106;SDS011;13866;50.748;12.630;2023-04-09T13:09:53;17.40;;;15.60;;
26106;SDS011;13866;50.748;12.630;2023-04-09T13:12:19;16.03;;;14.53;;
26106;SDS011;13866;50.748;12.630;2023-04-09T13:14:45;17.17;;;15.57;;
26106;SDS011;13866;50.748;12.630;2023-04-09T13:17:12;17.73;;;16.13;;
26106;SDS011;13866;50.748;12.630;2023-04-09T13:19:38;16.60;;;15.17;;
26106;SDS011;13866;50.748;12.630;2023-04-09T13:22:03;15.87;;;14.50;;
26106;SDS011;13866;50.748;12.630;2023-04-09T13:24:31;15.10;;;13.80;;
26106;SDS011;13866;50.748;12.630;2023-04-09T13:26:58;16.57;;;15.00;;
26106;SDS011;13866;50.748;12.630;2023-04-09T13:29:23;14.27;;;13.07;;
26106;SDS011;13866;50.748;12.630;2023-04-09T13:31:53;16.20;;;14.73;;
26106;SDS011;13866;50.748;12.630;2023-04-09T13:34:19;16.00;;;14.50;;
26106;SDS011;13866;50.748;12.630;2023-04-09T13:36:45;16.77;;;15.27;;
26106;SDS011;13866;50.748;12.630;2023-04-09T13:39:10;16.90;;;15.27;;
26106;SDS011;13866;50.748;12.630;2023-04-09T13:41:36;15.70;;;14.40;;
26106;SDS011;13866;50.748;12.630;2023-04-09T13:44:01;15.73;;;14.23;;
26106;SDS011;13866;50.748;12.630;2023-04-09T13:46:27;16.17;;;14.50;;
26106;SDS011;13866;50.748;12.630;2023-04-09T13:48:53;17.23;;;15.67;;
26106;SDS011;13866;50.748;12.630;2023-04-09T13:51:22;14.47;;;13.27;;
26106;SDS011;13866;50.748;12.630;2023-04-09T13:53:48;15.30;;;14.00;;
26106;SDS011;13866;50.748;12.630;2023-04-09T13:56:14;14.87;;;13.67;;
26106;SDS011;13866;50.748;12.630;2023-04-09T13:58:40;14.80;;;13.50;;
26106;SDS011;13866;50.748;12.630;2023-04-09T14:01:07;14.93;;;13.67;;
26106;SDS011;13866;50.748;12.630;2023-04-09T14:03:32;15.47;;;14.07;;
26106;SDS011;13866;50.748;12.630;2023-04-09T14:05:58;15.63;;;14.43;;
26106;SDS011;13866;50.748;12.630;2023-04-09T14:08:23;14.17;;;13.10;;
26106;SDS011;13866;50.748;12.630;2023-04-09T14:10:49;13.90;;;12.77;;
26106;SDS011;13866;50.748;12.630;2023-04-09T14:13:15;13.07;;;12.10;;
26106;SDS011;13866;50.748;12.630;2023-04-09T14:15:40;13.57;;;12.67;;
26106;SDS011;13866;50.748;12.630;2023-04-09T14:18:06;14.53;;;13.23;;
26106;SDS011;13866;50.748;12.630;2023-04-09T14:20:32;15.87;;;14.47;;